createdAt,value
2023-03-05T00:00:38.515Z,2.70
2023-03-05T00:03:19.176Z,2.70
2023-03-05T00:06:01.671Z,2.60
2023-03-05T00:09:07.261Z,2.70
2023-03-05T00:11:43.285Z,2.50
2023-03-05T00:14:28.163Z,2.70
2023-03-05T00:17:08.175Z,2.70
2023-03-05T00:19:54.828Z,2.70
2023-03-05T00:22:40.497Z,2.60
2023-03-05T00:25:27.221Z,2.60
2023-03-05T00:28:10.334Z,2.70
2023-03-05T00:30:44.737Z,2.60
2023-03-05T00:33:19.147Z,2.60
2023-03-05T00:36:08.604Z,2.70
2023-03-05T00:39:01.593Z,2.70
2023-03-05T00:41:56.184Z,2.80
2023-03-05T00:44:37.997Z,2.70
2023-03-05T00:47:21.072Z,2.70
2023-03-05T00:50:57.729Z,2.60
2023-03-05T00:54:03.160Z,2.70
2023-03-05T00:56:55.094Z,2.50
2023-03-05T00:59:35.124Z,2.50
2023-03-05T01:02:27.855Z,2.60
2023-03-05T01:05:42.816Z,2.80
2023-03-05T01:08:35.281Z,2.80
2023-03-05T01:11:20.774Z,2.80
2023-03-05T01:14:03.686Z,2.80
2023-03-05T01:16:39.424Z,2.70
2023-03-05T01:19:28.039Z,2.70
2023-03-05T01:22:08.270Z,2.70
2023-03-05T01:24:57.111Z,2.50
2023-03-05T01:27:42.299Z,2.70
2023-03-05T01:30:24.341Z,2.80
2023-03-05T01:33:12.163Z,2.70
2023-03-05T01:36:16.415Z,2.70
2023-03-05T01:38:59.174Z,2.70
2023-03-05T01:41:50.857Z,2.80
2023-03-05T01:44:34.052Z,2.80
2023-03-05T01:47:19.486Z,2.80
2023-03-05T01:50:18.448Z,2.70
2023-03-05T01:56:12.086Z,2.70
2023-03-05T01:59:19.264Z,2.80
2023-03-05T02:02:17.409Z,2.70
2023-03-05T02:05:49.282Z,2.60
2023-03-05T02:12:23.929Z,2.50
2023-03-05T02:15:03.887Z,2.50
2023-03-05T02:17:31.049Z,2.70
2023-03-05T02:28:38.489Z,2.50
2023-03-05T02:36:15.341Z,2.70
2023-03-05T02:45:38.998Z,2.70
2023-03-05T02:49:04.779Z,2.80
2023-03-05T02:56:52.083Z,2.70
2023-03-05T03:07:58.216Z,2.60
2023-03-05T03:14:58.184Z,2.70
2023-03-05T03:17:25.305Z,2.70
2023-03-05T03:20:11.974Z,2.60
2023-03-05T03:24:27.104Z,2.50
2023-03-05T03:26:33.962Z,2.50
2023-03-05T03:29:00.716Z,2.50
2023-03-05T03:31:27.513Z,2.40
2023-03-05T03:33:55.046Z,2.50
2023-03-05T03:36:21.826Z,2.50
2023-03-05T03:38:48.603Z,2.70
2023-03-05T03:41:16.829Z,2.70
2023-03-05T03:43:43.557Z,2.70
2023-03-05T03:46:11.186Z,2.80
2023-03-05T03:48:38.142Z,2.90
2023-03-05T03:51:06.821Z,2.80
2023-03-05T03:53:34.020Z,2.70
2023-03-05T03:56:00.733Z,2.80
2023-03-05T03:58:27.719Z,2.90
2023-03-05T04:00:54.655Z,2.80
2023-03-05T04:03:21.396Z,2.80
2023-03-05T04:05:48.268Z,2.80
2023-03-05T04:08:14.984Z,2.80
2023-03-05T04:10:41.832Z,2.70
2023-03-05T04:13:08.828Z,2.80
2023-03-05T04:15:35.624Z,2.70
2023-03-05T04:18:02.339Z,2.70
2023-03-05T04:20:29.032Z,2.70
2023-03-05T04:22:55.720Z,2.80
2023-03-05T04:25:22.551Z,2.80
2023-03-05T04:27:51.102Z,2.80
2023-03-05T04:30:17.845Z,2.80
2023-03-05T04:32:44.576Z,2.80
2023-03-05T04:35:11.790Z,2.80
2023-03-05T04:37:38.523Z,2.80
2023-03-05T04:40:05.900Z,2.90
2023-03-05T04:42:32.704Z,2.80
2023-03-05T04:44:59.437Z,2.80
2023-03-05T04:47:26.343Z,2.80
2023-03-05T04:49:53.084Z,2.70
2023-03-05T04:52:19.855Z,2.70
2023-03-05T04:54:46.666Z,2.70
2023-03-05T04:57:13.488Z,2.70
2023-03-05T04:59:40.202Z,2.70
2023-03-05T05:02:06.975Z,2.70
2023-03-05T05:04:35.532Z,2.70
2023-03-05T05:07:03.297Z,2.60
2023-03-05T05:09:30.315Z,2.60
2023-03-05T05:11:56.996Z,2.60
2023-03-05T05:14:23.845Z,2.70
2023-03-05T05:16:50.795Z,2.70
2023-03-05T05:19:18.096Z,2.70
2023-03-05T05:21:44.911Z,2.70
2023-03-05T05:24:11.709Z,2.70
2023-03-05T05:26:38.658Z,2.70
2023-03-05T05:29:05.503Z,2.70
2023-03-05T05:31:32.377Z,2.60
2023-03-05T05:33:59.146Z,2.80
2023-03-05T05:36:25.932Z,2.80
2023-03-05T05:38:52.721Z,2.80
2023-03-05T05:41:20.185Z,2.80
2023-03-05T05:43:48.661Z,2.70
2023-03-05T05:46:18.245Z,2.70
2023-03-05T05:48:45.436Z,2.70
2023-03-05T05:51:21.007Z,2.70
2023-03-05T05:53:48.321Z,2.70
2023-03-05T05:56:16.572Z,2.80
2023-03-05T05:58:45.008Z,2.80
2023-03-05T06:01:28.170Z,2.80
2023-03-05T06:03:55.385Z,2.80
2023-03-05T06:06:24.139Z,2.80
2023-03-05T06:08:51.225Z,2.80
2023-03-05T06:11:19.584Z,2.70
2023-03-05T06:13:47.882Z,2.70
2023-03-05T06:16:17.499Z,2.70
2023-03-05T06:18:44.621Z,2.80
2023-03-05T06:21:14.982Z,2.80
2023-03-05T06:23:42.949Z,2.70
2023-03-05T06:26:12.170Z,2.80
2023-03-05T06:28:39.350Z,2.80
2023-03-05T06:31:12.649Z,2.90
2023-03-05T06:33:40.304Z,2.90
2023-03-05T06:36:10.460Z,2.90
2023-03-05T06:38:37.265Z,2.90
2023-03-05T06:41:06.968Z,2.80
2023-03-05T06:43:33.687Z,2.90
2023-03-05T06:46:03.038Z,3.00
2023-03-05T06:48:29.893Z,2.90
2023-03-05T06:50:56.713Z,2.80
2023-03-05T06:53:25.313Z,2.80
2023-03-05T06:55:52.847Z,2.80
2023-03-05T06:58:20.756Z,2.80
2023-03-05T07:00:47.885Z,2.80
2023-03-05T07:03:14.694Z,2.90
2023-03-05T07:05:42.347Z,2.90
2023-03-05T07:08:09.557Z,2.90
2023-03-05T07:10:43.885Z,2.80
2023-03-05T07:13:10.855Z,2.90
2023-03-05T07:15:39.852Z,2.90
2023-03-05T07:18:07.134Z,2.80
2023-03-05T07:20:35.881Z,2.80
2023-03-05T07:23:03.411Z,2.50
2023-03-05T07:25:30.841Z,2.50
2023-03-05T07:27:57.671Z,2.40
2023-03-05T07:30:24.821Z,2.30
2023-03-05T07:32:51.521Z,2.50
2023-03-05T07:35:18.384Z,2.50
2023-03-05T07:37:45.315Z,2.50
2023-03-05T07:40:12.378Z,2.50
2023-03-05T07:42:39.113Z,2.50
2023-03-05T07:45:15.188Z,2.50
2023-03-05T07:47:41.883Z,2.60
2023-03-05T07:50:09.427Z,2.60
2023-03-05T07:52:36.216Z,2.60
2023-03-05T07:55:02.981Z,2.50
2023-03-05T07:57:29.758Z,2.60
2023-03-05T07:59:56.593Z,2.70
2023-03-05T08:02:23.428Z,2.70
2023-03-05T08:04:50.300Z,2.80
2023-03-05T08:07:17.286Z,2.80
2023-03-05T08:09:44.210Z,2.90
2023-03-05T08:12:10.932Z,2.90
2023-03-05T08:14:38.142Z,3.00
2023-03-05T08:17:05.295Z,3.00
2023-03-05T08:19:33.297Z,3.00
2023-03-05T08:22:00.083Z,3.10
2023-03-05T08:24:29.685Z,3.10
2023-03-05T08:26:59.402Z,3.10
2023-03-05T08:29:26.886Z,3.10
2023-03-05T08:31:53.887Z,3.10
2023-03-05T08:34:21.253Z,3.10
2023-03-05T08:36:49.068Z,3.20
2023-03-05T08:39:16.420Z,3.10
2023-03-05T08:41:43.337Z,3.30
2023-03-05T08:44:10.404Z,3.30
2023-03-05T08:46:39.803Z,3.50
2023-03-05T08:49:07.512Z,3.50
2023-03-05T08:51:35.845Z,3.50
2023-03-05T08:54:06.799Z,3.60
2023-03-05T08:56:34.977Z,3.60
2023-03-05T08:59:02.167Z,3.60
2023-03-05T09:01:30.762Z,3.70
2023-03-05T09:03:59.958Z,3.80
2023-03-05T09:06:27.814Z,3.70
2023-03-05T09:08:54.867Z,3.90
2023-03-05T09:11:22.508Z,3.90
2023-03-05T09:13:49.499Z,4.00
2023-03-05T09:16:18.611Z,4.10
2023-03-05T09:18:45.441Z,4.00
2023-03-05T09:21:15.502Z,4.10
2023-03-05T09:23:43.170Z,4.10
2023-03-05T09:26:15.597Z,4.20
2023-03-05T09:28:42.623Z,4.10
2023-03-05T09:31:09.669Z,4.00
2023-03-05T09:33:37.312Z,4.00
2023-03-05T09:36:05.346Z,4.00
2023-03-05T09:38:32.374Z,4.00
2023-03-05T09:41:15.559Z,4.00
2023-03-05T09:44:09.429Z,3.90
2023-03-05T09:46:56.854Z,3.90
2023-03-05T09:50:01.006Z,3.90
2023-03-05T09:52:53.978Z,4.00
2023-03-05T09:55:45.794Z,4.00
2023-03-05T09:58:14.013Z,4.00
2023-03-05T10:00:50.690Z,4.10
2023-03-05T10:03:28.139Z,4.20
2023-03-05T10:06:34.387Z,4.20
2023-03-05T10:09:22.347Z,4.30
2023-03-05T10:12:05.668Z,4.40
2023-03-05T10:14:35.594Z,4.30
2023-03-05T10:17:39.507Z,4.20
2023-03-05T10:20:25.213Z,4.30
2023-03-05T10:23:21.054Z,4.40
2023-03-05T10:25:55.239Z,4.40
2023-03-05T10:28:38.242Z,4.50
2023-03-05T10:31:35.196Z,4.70
2023-03-05T10:34:22.470Z,5.00
2023-03-05T10:37:28.100Z,5.10
2023-03-05T10:40:11.763Z,5.30
2023-03-05T10:43:01.212Z,5.30
2023-03-05T10:45:34.399Z,5.30
2023-03-05T10:48:35.306Z,5.30
2023-03-05T10:51:20.848Z,5.30
2023-03-05T10:54:06.124Z,5.30
2023-03-05T10:56:32.961Z,5.20
2023-03-05T10:58:59.700Z,5.00
2023-03-05T11:01:29.128Z,5.00
2023-03-05T11:04:06.898Z,5.00
2023-03-05T11:06:43.201Z,5.20
2023-03-05T11:09:43.183Z,5.30
2023-03-05T11:12:15.189Z,5.10
2023-03-05T11:15:05.450Z,5.20
2023-03-05T11:17:44.613Z,5.30
2023-03-05T11:20:26.591Z,5.30
2023-03-05T11:23:02.846Z,5.10
2023-03-05T11:25:30.076Z,5.10
2023-03-05T11:27:59.684Z,5.10
2023-03-05T11:30:33.221Z,5.10
2023-03-05T11:33:10.824Z,5.30
2023-03-05T11:35:40.880Z,5.50
2023-03-05T11:38:20.288Z,5.50
2023-03-05T11:40:48.384Z,5.60
2023-03-05T11:43:17.741Z,5.70
2023-03-05T11:45:46.217Z,5.80
2023-03-05T11:48:28.366Z,5.80
2023-03-05T11:51:01.540Z,5.70
2023-03-05T11:53:31.771Z,5.60
2023-03-05T11:56:10.904Z,5.50
2023-03-05T11:58:45.128Z,5.60
2023-03-05T12:01:18.297Z,5.50
2023-03-05T12:03:45.384Z,5.30
2023-03-05T12:06:23.913Z,5.30
2023-03-05T12:08:57.625Z,5.40
2023-03-05T12:11:29.074Z,5.60
2023-03-05T12:14:20.692Z,5.90
2023-03-05T12:17:00.014Z,6.00
2023-03-05T12:19:41.247Z,6.10
2023-03-05T12:22:22.737Z,6.10
2023-03-05T12:24:51.152Z,6.20
2023-03-05T12:27:37.008Z,6.40
2023-03-05T12:30:05.232Z,6.20
2023-03-05T12:32:32.022Z,6.10
2023-03-05T12:35:01.021Z,6.30
2023-03-05T12:37:27.930Z,6.30
2023-03-05T12:40:22.463Z,6.20
2023-03-05T12:42:53.445Z,6.10
2023-03-05T12:45:25.715Z,6.00
2023-03-05T12:47:55.432Z,5.80
2023-03-05T12:50:28.422Z,5.90
2023-03-05T12:53:09.973Z,6.00
2023-03-05T12:55:56.795Z,6.10
2023-03-05T12:58:42.384Z,6.20
2023-03-05T13:01:11.882Z,6.20
2023-03-05T13:04:11.424Z,6.20
2023-03-05T13:06:39.484Z,6.20
2023-03-05T13:09:28.267Z,6.40
2023-03-05T13:11:55.693Z,6.40
2023-03-05T13:14:47.244Z,6.30
2023-03-05T13:17:32.741Z,6.20
2023-03-05T13:20:01.746Z,6.20
2023-03-05T13:22:28.704Z,6.10
2023-03-05T13:25:16.929Z,6.10
2023-03-05T13:27:44.140Z,6.10
2023-03-05T13:30:22.748Z,6.00
2023-03-05T13:32:52.119Z,6.10
2023-03-05T13:35:20.802Z,6.30
2023-03-05T13:37:49.238Z,6.40
2023-03-05T13:40:22.877Z,6.40
2023-03-05T13:42:50.993Z,6.30
2023-03-05T13:45:31.836Z,6.30
2023-03-05T13:48:04.558Z,6.30
2023-03-05T13:50:32.604Z,6.20
2023-03-05T13:53:18.215Z,6.00
2023-03-05T13:55:46.607Z,6.00
2023-03-05T13:58:49.207Z,5.90
2023-03-05T14:01:25.550Z,6.00
2023-03-05T14:03:55.927Z,6.00
2023-03-05T14:06:25.243Z,5.90
2023-03-05T14:08:55.140Z,5.80
2023-03-05T14:11:23.136Z,5.80
2023-03-05T14:14:00.201Z,5.80
2023-03-05T14:16:32.619Z,5.60
2023-03-05T14:19:02.200Z,5.60
2023-03-05T14:21:50.715Z,5.70
2023-03-05T14:24:23.374Z,5.70
2023-03-05T14:26:56.567Z,5.80
2023-03-05T14:29:28.662Z,5.90
2023-03-05T14:32:06.004Z,6.00
2023-03-05T14:34:36.455Z,6.00
2023-03-05T14:37:21.231Z,6.00
2023-03-05T14:40:00.667Z,6.00
2023-03-05T14:42:31.200Z,5.90
2023-03-05T14:45:10.870Z,5.90
2023-03-05T14:47:37.804Z,6.00
2023-03-05T14:50:06.082Z,6.10
2023-03-05T14:52:32.916Z,6.10
2023-03-05T14:55:00.475Z,6.10
2023-03-05T14:57:30.992Z,6.10
2023-03-05T14:59:57.717Z,6.10
2023-03-05T15:02:26.743Z,6.10
2023-03-05T15:04:53.627Z,6.20
2023-03-05T15:07:28.982Z,6.20
2023-03-05T15:09:56.005Z,6.30
2023-03-05T15:12:24.759Z,6.20
2023-03-05T15:14:53.689Z,6.20
2023-03-05T15:17:36.013Z,6.10
2023-03-05T15:20:10.006Z,6.10
2023-03-05T15:22:37.416Z,6.10
2023-03-05T15:25:04.450Z,6.10
2023-03-05T15:27:31.353Z,6.10
2023-03-05T15:29:59.542Z,6.10
2023-03-05T15:32:28.968Z,6.20
2023-03-05T15:34:56.029Z,6.10
2023-03-05T15:37:23.108Z,6.00
2023-03-05T15:39:49.875Z,5.90
2023-03-05T15:42:16.717Z,5.70
2023-03-05T15:44:43.432Z,5.60
2023-03-05T15:47:10.600Z,5.60
2023-03-05T15:49:37.369Z,5.60
2023-03-05T15:52:04.186Z,5.50
2023-03-05T15:54:31.398Z,5.50
2023-03-05T15:56:58.133Z,5.50
2023-03-05T15:59:25.209Z,5.50
2023-03-05T16:01:52.226Z,5.50
2023-03-05T16:04:19.290Z,5.30
2023-03-05T16:06:48.147Z,5.30
2023-03-05T16:09:16.073Z,5.40
2023-03-05T16:11:48.088Z,5.30
2023-03-05T16:14:19.433Z,5.30
2023-03-05T16:16:46.511Z,5.40
2023-03-05T16:19:16.444Z,5.40
2023-03-05T16:21:43.216Z,5.40
2023-03-05T16:24:10.403Z,5.40
2023-03-05T16:26:39.233Z,5.30
2023-03-05T16:29:06.368Z,5.30
2023-03-05T16:31:34.844Z,5.30
2023-03-05T16:34:02.099Z,5.30
2023-03-05T16:36:30.867Z,5.30
2023-03-05T16:38:59.355Z,5.30
2023-03-05T16:41:27.146Z,5.20
2023-03-05T16:43:56.316Z,5.20
2023-03-05T16:46:28.305Z,5.10
2023-03-05T16:48:55.116Z,5.10
2023-03-05T16:51:22.531Z,5.10
2023-03-05T16:53:49.706Z,5.10
2023-03-05T16:56:16.588Z,5.10
2023-03-05T16:58:43.359Z,5.10
2023-03-05T17:01:19.370Z,5.10
2023-03-05T17:03:47.389Z,5.00
2023-03-05T17:06:20.076Z,5.10
2023-03-05T17:08:48.298Z,5.00
2023-03-05T17:11:15.767Z,5.00
2023-03-05T17:13:43.246Z,5.00
2023-03-05T17:16:12.500Z,5.00
2023-03-05T17:18:39.642Z,5.00
2023-03-05T17:21:07.916Z,5.00
2023-03-05T17:23:36.166Z,5.00
2023-03-05T17:26:08.086Z,5.00
2023-03-05T17:28:35.183Z,5.00
2023-03-05T17:31:03.834Z,5.00
2023-03-05T17:33:37.241Z,5.00
2023-03-05T17:36:04.865Z,5.00
2023-03-05T17:38:31.829Z,5.00
2023-03-05T17:40:58.622Z,5.00
2023-03-05T17:43:25.392Z,5.00
2023-03-05T17:45:52.904Z,5.00
2023-03-05T17:48:19.747Z,5.00
2023-03-05T17:50:46.564Z,5.00
2023-03-05T17:53:13.667Z,5.00
2023-03-05T17:55:40.566Z,4.90
2023-03-05T17:58:07.742Z,4.90
2023-03-05T18:00:35.469Z,4.90
2023-03-05T18:03:02.851Z,4.90
2023-03-05T18:05:29.678Z,4.90
2023-03-05T18:07:56.524Z,4.90
2023-03-05T18:10:26.034Z,4.80
2023-03-05T18:12:53.957Z,4.90
2023-03-05T18:15:22.603Z,4.90
2023-03-05T18:17:49.951Z,4.80
2023-03-05T18:20:31.455Z,4.90
2023-03-05T18:23:00.203Z,4.80
2023-03-05T18:25:31.435Z,4.70
2023-03-05T18:28:09.381Z,4.80
2023-03-05T18:30:36.656Z,4.70
2023-03-05T18:33:06.745Z,4.70
2023-03-05T18:35:34.258Z,4.70
2023-03-05T18:38:01.374Z,4.70
2023-03-05T18:40:30.557Z,4.70
2023-03-05T18:43:00.588Z,4.70
2023-03-05T18:45:28.040Z,4.70
2023-03-05T18:47:56.540Z,4.70
2023-03-05T18:50:26.158Z,4.70
2023-03-05T18:52:53.714Z,4.70
2023-03-05T18:55:24.179Z,4.70
2023-03-05T18:57:51.784Z,4.50
2023-03-05T19:00:21.815Z,4.60
2023-03-05T19:02:49.003Z,4.50
2023-03-05T19:05:16.457Z,4.50
2023-03-05T19:07:43.547Z,4.50
2023-03-05T19:10:12.308Z,4.50
2023-03-05T19:12:49.751Z,4.50
2023-03-05T19:15:17.638Z,4.60
2023-03-05T19:17:44.557Z,4.60
2023-03-05T19:20:12.624Z,4.60
2023-03-05T19:22:39.600Z,4.60
2023-03-05T19:25:07.167Z,4.50
2023-03-05T19:27:34.280Z,4.60
2023-03-05T19:30:01.413Z,4.50
2023-03-05T19:32:28.530Z,4.60
2023-03-05T19:34:57.059Z,4.60
2023-03-05T19:37:24.699Z,4.50
2023-03-05T19:39:51.480Z,4.50
2023-03-05T19:42:18.537Z,4.50
2023-03-05T19:44:45.485Z,4.50
2023-03-05T19:47:12.299Z,4.50
2023-03-05T19:49:39.124Z,4.40
2023-03-05T19:52:06.228Z,4.40
2023-03-05T19:54:33.270Z,4.30
2023-03-05T19:57:00.186Z,4.30
2023-03-05T19:59:27.150Z,4.30
2023-03-05T20:01:54.098Z,4.30
2023-03-05T20:04:23.186Z,4.30
2023-03-05T20:06:52.236Z,4.30
2023-03-05T20:09:19.536Z,4.20
2023-03-05T20:11:47.015Z,4.20
2023-03-05T20:14:14.824Z,4.00
2023-03-05T20:16:43.298Z,4.00
2023-03-05T20:19:16.160Z,4.00
2023-03-05T20:21:44.100Z,3.90
2023-03-05T20:24:13.891Z,3.90
2023-03-05T20:26:42.102Z,3.90
2023-03-05T20:29:09.615Z,3.70
2023-03-05T20:31:37.801Z,3.70
2023-03-05T20:34:07.584Z,3.70
2023-03-05T20:36:37.062Z,3.70
2023-03-05T20:39:05.302Z,3.60
2023-03-05T20:41:33.537Z,3.70
2023-03-05T20:44:00.330Z,3.60
2023-03-05T20:46:30.339Z,3.60
2023-03-05T20:49:00.209Z,3.60
2023-03-05T20:51:36.245Z,3.50
2023-03-05T20:54:06.801Z,3.50
2023-03-05T20:56:35.042Z,3.50
2023-03-05T20:59:04.675Z,3.40
2023-03-05T21:01:33.905Z,3.30
2023-03-05T21:04:01.745Z,3.30
2023-03-05T21:06:30.103Z,3.30
2023-03-05T21:08:57.562Z,3.30
2023-03-05T21:11:24.655Z,3.30
2023-03-05T21:13:51.485Z,3.30
2023-03-05T21:16:21.127Z,3.30
2023-03-05T21:18:48.612Z,3.30
2023-03-05T21:21:15.328Z,3.30
2023-03-05T21:23:42.215Z,3.20
2023-03-05T21:26:09.070Z,3.30
2023-03-05T21:28:36.288Z,3.20
2023-03-05T21:31:14.220Z,3.20
2023-03-05T21:33:42.008Z,3.10
2023-03-05T21:36:09.067Z,3.10
2023-03-05T21:38:35.968Z,3.00
2023-03-05T21:41:03.989Z,3.00
2023-03-05T21:43:31.441Z,3.00
2023-03-05T21:45:59.995Z,3.00
2023-03-05T21:48:26.833Z,2.90
2023-03-05T21:50:55.123Z,2.90
2023-03-05T21:53:23.037Z,2.90
2023-03-05T21:56:02.953Z,2.90
2023-03-05T21:58:34.560Z,3.00
2023-03-05T22:01:02.126Z,3.10
2023-03-05T22:03:29.910Z,3.10
2023-03-05T22:05:57.567Z,3.00
2023-03-05T22:08:24.747Z,3.10
2023-03-05T22:10:51.819Z,3.10
2023-03-05T22:13:20.065Z,3.00
2023-03-05T22:15:49.887Z,3.00
2023-03-05T22:18:22.794Z,3.10
2023-03-05T22:20:49.847Z,3.00
2023-03-05T22:23:17.538Z,3.10
2023-03-05T22:25:44.843Z,3.10
2023-03-05T22:28:13.095Z,3.00
2023-03-05T22:30:44.186Z,3.10
2023-03-05T22:33:12.197Z,3.10
2023-03-05T22:35:40.706Z,3.10
2023-03-05T22:38:08.852Z,3.10
2023-03-05T22:40:37.594Z,3.10
2023-03-05T22:43:04.984Z,3.10
2023-03-05T22:45:31.758Z,3.10
2023-03-05T22:47:58.589Z,3.10
2023-03-05T22:50:25.356Z,3.10
2023-03-05T22:52:52.543Z,3.10
2023-03-05T22:55:19.493Z,3.10
2023-03-05T22:57:46.510Z,3.10
2023-03-05T23:00:17.630Z,3.10
2023-03-05T23:02:44.817Z,3.00
2023-03-05T23:05:12.100Z,3.00
2023-03-05T23:07:40.760Z,3.00
2023-03-05T23:10:18.945Z,3.00
2023-03-05T23:12:49.868Z,3.00
2023-03-05T23:15:23.101Z,3.00
2023-03-05T23:17:49.888Z,3.00
2023-03-05T23:20:19.537Z,3.00
2023-03-05T23:22:47.514Z,3.10
2023-03-05T23:25:15.712Z,3.00
2023-03-05T23:27:43.012Z,3.00
2023-03-05T23:30:48.380Z,3.00
2023-03-05T23:33:15.157Z,2.90
2023-03-05T23:35:53.762Z,2.90
2023-03-05T23:38:21.813Z,2.80
2023-03-05T23:40:54.929Z,2.90
2023-03-05T23:43:24.557Z,3.00
2023-03-05T23:45:55.424Z,3.00
2023-03-05T23:48:26.535Z,3.00
2023-03-05T23:50:53.702Z,2.90
2023-03-05T23:53:26.616Z,2.90
2023-03-05T23:55:54.060Z,3.00
2023-03-05T23:58:21.333Z,2.90
